createdAt,value
2022-07-25T01:14:12.114Z,23.70
2022-07-25T01:15:16.851Z,23.70
2022-07-25T01:16:19.482Z,23.70
2022-07-25T01:17:22.843Z,23.70
2022-07-25T01:18:25.267Z,23.60
2022-07-25T01:19:28.657Z,23.60
2022-07-25T01:20:33.373Z,23.60
2022-07-25T01:21:39.628Z,23.50
2022-07-25T01:22:42.539Z,23.50
2022-07-25T01:23:45.981Z,23.50
2022-07-25T01:24:50.568Z,23.50
2022-07-25T01:25:56.388Z,23.40
2022-07-25T01:26:58.747Z,23.40
2022-07-25T01:28:02.126Z,23.40
2022-07-25T01:29:05.068Z,23.40
2022-07-25T01:30:12.052Z,23.40
2022-07-25T01:31:14.524Z,23.30
2022-07-25T01:32:17.891Z,23.30
2022-07-25T01:33:21.992Z,23.30
2022-07-25T01:34:25.299Z,23.30
2022-07-25T01:35:34.555Z,23.30
2022-07-25T01:36:40.326Z,23.20
2022-07-25T01:37:45.451Z,23.20
2022-07-25T01:38:49.566Z,23.20
2022-07-25T01:39:56.437Z,23.20
2022-07-25T01:40:59.723Z,23.20
2022-07-25T01:42:02.062Z,23.10
2022-07-25T01:43:08.057Z,23.10
2022-07-25T01:44:10.566Z,23.10
2022-07-25T01:45:14.705Z,23.10
2022-07-25T01:46:20.197Z,23.10
2022-07-25T01:47:26.101Z,23.00
2022-07-25T01:48:28.638Z,23.00
2022-07-25T01:49:32.025Z,23.00
2022-07-25T01:50:37.161Z,23.00
2022-07-25T01:51:40.683Z,23.00
2022-07-25T01:52:44.233Z,22.90
2022-07-25T01:53:49.801Z,22.90
2022-07-25T01:54:54.685Z,22.90
2022-07-25T01:55:58.202Z,22.80
2022-07-25T01:57:00.548Z,22.80
2022-07-25T01:58:04.293Z,22.80
2022-07-25T01:59:08.786Z,22.80
2022-07-25T02:00:15.516Z,22.80
2022-07-25T02:01:17.912Z,22.70
2022-07-25T02:02:25.002Z,22.70
2022-07-25T02:03:30.094Z,22.70
2022-07-25T02:04:34.503Z,22.70
2022-07-25T02:05:38.487Z,22.70
2022-07-25T02:06:42.507Z,22.70
2022-07-25T02:07:44.956Z,22.60
2022-07-25T02:08:48.347Z,22.70
2022-07-25T02:09:56.534Z,22.60
2022-07-25T02:11:01.555Z,22.60
2022-07-25T02:12:07.341Z,22.60
2022-07-25T02:13:09.669Z,22.60
2022-07-25T02:14:15.657Z,22.60
2022-07-25T02:15:18.148Z,22.60
2022-07-25T02:16:21.607Z,22.60
2022-07-25T02:17:34.269Z,22.60
2022-07-25T02:18:38.309Z,22.60
2022-07-25T02:19:44.600Z,22.60
2022-07-25T02:20:49.331Z,22.60
2022-07-25T02:21:52.749Z,22.60
2022-07-25T02:22:55.183Z,22.50
2022-07-25T02:23:58.471Z,22.50
2022-07-25T02:25:00.788Z,22.50
2022-07-25T02:26:04.230Z,22.50
2022-07-25T02:27:09.108Z,22.50
2022-07-25T02:28:12.465Z,22.50
2022-07-25T02:29:14.901Z,22.50
2022-07-25T02:30:18.327Z,22.50
2022-07-25T02:31:20.717Z,22.50
2022-07-25T02:32:26.375Z,22.50
2022-07-25T02:33:28.971Z,22.40
2022-07-25T02:34:32.250Z,22.40
2022-07-25T02:35:34.761Z,22.40
2022-07-25T02:36:39.736Z,22.40
2022-07-25T02:37:42.498Z,22.40
2022-07-25T02:38:46.002Z,22.40
2022-07-25T02:39:48.492Z,22.40
2022-07-25T02:40:53.921Z,22.40
2022-07-25T02:41:56.259Z,22.40
2022-07-25T02:42:59.619Z,22.40
2022-07-25T02:44:05.792Z,22.40
2022-07-25T02:45:10.535Z,22.40
2022-07-25T02:46:13.156Z,22.40
2022-07-25T02:47:16.524Z,22.40
2022-07-25T02:48:19.048Z,22.30
2022-07-25T02:49:22.391Z,22.40
2022-07-25T02:50:25.430Z,22.40
2022-07-25T02:51:31.129Z,22.30
2022-07-25T02:52:34.946Z,22.30
2022-07-25T02:53:56.705Z,22.40
2022-07-25T02:54:59.844Z,22.30
2022-07-25T02:56:03.258Z,22.30
2022-07-25T02:57:08.386Z,22.30
2022-07-25T02:58:12.372Z,22.30
2022-07-25T02:59:14.751Z,22.30
2022-07-25T03:00:19.183Z,22.30
2022-07-25T03:01:21.814Z,22.30
2022-07-25T03:02:25.306Z,22.30
2022-07-25T03:03:30.011Z,22.30
2022-07-25T03:04:33.545Z,22.30
2022-07-25T03:05:36.055Z,22.30
2022-07-25T03:06:39.088Z,22.30
2022-07-25T03:07:44.511Z,22.30
2022-07-25T03:08:47.941Z,22.30
2022-07-25T03:09:50.370Z,22.30
2022-07-25T03:10:54.381Z,22.30
2022-07-25T03:11:56.826Z,22.30
2022-07-25T03:13:00.169Z,22.20
2022-07-25T03:14:03.659Z,22.20
2022-07-25T03:15:09.069Z,22.20
2022-07-25T03:16:11.541Z,22.20
2022-07-25T03:17:14.915Z,22.20
2022-07-25T03:18:17.225Z,22.20
2022-07-25T03:19:20.557Z,22.20
2022-07-25T03:20:25.485Z,22.20
2022-07-25T03:21:28.785Z,22.20
2022-07-25T03:22:31.157Z,22.20
2022-07-25T03:23:38.705Z,22.20
2022-07-25T03:24:41.095Z,22.20
2022-07-25T03:25:44.424Z,22.20
2022-07-25T03:26:46.749Z,22.20
2022-07-25T03:27:53.166Z,22.20
2022-07-25T03:28:55.582Z,22.20
2022-07-25T03:29:59.788Z,22.10
2022-07-25T03:31:02.640Z,22.10
2022-07-25T03:32:07.788Z,22.20
2022-07-25T03:33:10.292Z,22.10
2022-07-25T03:34:13.725Z,22.10
2022-07-25T03:35:16.294Z,22.20
2022-07-25T03:36:20.449Z,22.20
2022-07-25T03:37:22.785Z,22.20
2022-07-25T03:38:26.035Z,22.20
2022-07-25T03:39:31.436Z,22.20
2022-07-25T03:40:33.806Z,22.10
2022-07-25T03:41:39.773Z,22.10
2022-07-25T03:42:42.134Z,22.20
2022-07-25T03:43:45.511Z,22.10
2022-07-25T03:44:47.866Z,22.10
2022-07-25T03:45:51.315Z,22.10
2022-07-25T03:46:53.839Z,22.10
2022-07-25T03:47:57.146Z,22.10
2022-07-25T03:48:59.668Z,22.10
2022-07-25T03:50:03.005Z,22.10
2022-07-25T03:51:07.234Z,22.10
2022-07-25T03:52:11.195Z,22.20
2022-07-25T03:53:13.548Z,22.20
2022-07-25T03:54:16.911Z,22.20
2022-07-25T03:55:20.689Z,22.20
2022-07-25T03:56:26.737Z,22.20
2022-07-25T03:57:29.994Z,22.20
2022-07-25T03:58:32.345Z,22.20
2022-07-25T03:59:36.404Z,22.20
2022-07-25T04:00:38.918Z,22.20
2022-07-25T04:01:43.211Z,22.20
2022-07-25T04:02:47.953Z,22.20
2022-07-25T04:03:51.387Z,22.20
2022-07-25T04:04:57.443Z,22.20
2022-07-25T04:06:01.024Z,22.20
2022-07-25T04:07:07.146Z,22.10
2022-07-25T04:08:10.271Z,22.10
2022-07-25T04:09:15.875Z,22.10
2022-07-25T04:10:18.169Z,22.10
2022-07-25T04:11:25.377Z,22.10
2022-07-25T04:12:29.966Z,22.10
2022-07-25T04:13:33.475Z,22.10
2022-07-25T04:14:35.745Z,22.00
2022-07-25T04:15:39.009Z,22.00
2022-07-25T04:16:42.282Z,22.00
2022-07-25T04:17:45.711Z,22.00
2022-07-25T04:18:48.350Z,22.00
2022-07-25T04:19:52.790Z,22.00
2022-07-25T04:20:55.166Z,22.00
2022-07-25T04:21:58.533Z,22.00
2022-07-25T04:23:00.880Z,22.00
2022-07-25T04:24:04.776Z,22.00
2022-07-25T04:25:08.831Z,22.00
2022-07-25T04:26:12.300Z,22.00
2022-07-25T04:27:19.223Z,22.00
2022-07-25T04:28:21.747Z,22.00
2022-07-25T04:29:25.138Z,22.00
2022-07-25T04:30:27.466Z,22.00
2022-07-25T04:31:31.128Z,22.00
2022-07-25T04:32:34.309Z,22.00
2022-07-25T04:33:38.321Z,22.00
2022-07-25T04:34:40.891Z,22.00
2022-07-25T04:35:44.838Z,22.00
2022-07-25T04:36:48.274Z,22.00
2022-07-25T04:37:50.569Z,22.00
2022-07-25T04:38:54.137Z,22.00
2022-07-25T04:39:58.429Z,22.00
2022-07-25T04:41:02.009Z,22.00
2022-07-25T04:42:06.941Z,22.00
2022-07-25T04:43:13.865Z,22.10
2022-07-25T04:44:17.295Z,22.10
2022-07-25T04:45:19.642Z,22.10
2022-07-25T04:46:23.977Z,22.10
2022-07-25T04:47:28.731Z,22.10
2022-07-25T04:48:34.959Z,22.10
2022-07-25T04:49:38.384Z,22.10
2022-07-25T04:50:43.362Z,22.10
2022-07-25T04:51:46.650Z,22.10
2022-07-25T04:52:51.362Z,22.10
2022-07-25T04:53:54.838Z,22.10
2022-07-25T04:54:57.282Z,22.10
2022-07-25T04:56:00.631Z,22.20
2022-07-25T04:57:04.839Z,22.20
2022-07-25T04:58:08.331Z,22.20
2022-07-25T04:59:11.970Z,22.20
2022-07-25T05:00:18.653Z,22.20
2022-07-25T05:01:21.047Z,22.20
2022-07-25T05:02:24.859Z,22.20
2022-07-25T05:03:27.775Z,22.30
2022-07-25T05:04:31.108Z,22.30
2022-07-25T05:05:33.939Z,22.30
2022-07-25T05:06:37.213Z,22.30
2022-07-25T05:07:39.814Z,22.30
2022-07-25T05:08:43.172Z,22.30
2022-07-25T05:09:45.974Z,22.40
2022-07-25T05:10:49.257Z,22.40
2022-07-25T05:11:56.425Z,22.40
2022-07-25T05:13:00.101Z,22.50
2022-07-25T05:14:02.585Z,22.50
2022-07-25T05:15:08.937Z,22.50
2022-07-25T05:16:11.415Z,22.50
2022-07-25T05:17:16.824Z,22.60
2022-07-25T05:18:19.352Z,22.60
2022-07-25T05:19:22.760Z,22.60
2022-07-25T05:20:25.586Z,22.70
2022-07-25T05:21:28.847Z,22.70
2022-07-25T05:22:31.421Z,22.80
2022-07-25T05:23:34.738Z,22.90
2022-07-25T05:24:37.796Z,22.90
2022-07-25T05:25:41.279Z,23.00
2022-07-25T05:26:43.725Z,23.10
2022-07-25T05:27:47.134Z,23.20
2022-07-25T05:28:50.453Z,23.40
2022-07-25T05:29:53.027Z,23.50
2022-07-25T05:30:57.760Z,23.70
2022-07-25T05:32:00.273Z,23.80
2022-07-25T05:33:03.678Z,24.00
2022-07-25T05:34:07.392Z,24.10
2022-07-25T05:35:10.559Z,24.30
2022-07-25T05:36:14.342Z,24.40
2022-07-25T05:37:16.686Z,24.60
2022-07-25T05:38:20.532Z,24.70
2022-07-25T05:39:24.773Z,24.80
2022-07-25T05:40:30.398Z,25.00
2022-07-25T05:41:34.111Z,25.10
2022-07-25T05:42:36.719Z,25.20
2022-07-25T05:43:40.107Z,25.30
2022-07-25T05:44:42.539Z,25.40
2022-07-25T05:45:47.289Z,25.40
2022-07-25T05:46:51.072Z,25.40
2022-07-25T05:47:54.500Z,25.40
2022-07-25T05:48:59.453Z,25.40
2022-07-25T05:50:02.919Z,25.40
2022-07-25T05:51:06.415Z,25.40
2022-07-25T05:52:12.839Z,25.40
2022-07-25T05:53:16.535Z,25.30
2022-07-25T05:54:18.948Z,25.30
2022-07-25T05:55:22.578Z,25.30
2022-07-25T05:56:25.175Z,25.30
2022-07-25T05:57:28.775Z,25.30
2022-07-25T05:58:31.608Z,25.30
2022-07-25T05:59:35.012Z,25.30
2022-07-25T06:00:40.590Z,25.30
2022-07-25T06:01:43.168Z,25.30
2022-07-25T06:02:48.186Z,25.30
2022-07-25T06:03:50.499Z,25.30
2022-07-25T06:04:53.773Z,25.40
2022-07-25T06:05:56.931Z,25.40
2022-07-25T06:07:00.221Z,25.50
2022-07-25T06:08:02.577Z,25.70
2022-07-25T06:09:08.580Z,25.70
2022-07-25T06:10:12.438Z,25.80
2022-07-25T06:11:14.727Z,25.90
2022-07-25T06:12:18.140Z,25.90
2022-07-25T06:13:21.000Z,26.00
2022-07-25T06:14:25.998Z,26.00
2022-07-25T06:15:30.279Z,26.10
2022-07-25T06:16:32.664Z,26.20
2022-07-25T06:17:36.309Z,26.30
2022-07-25T06:18:40.030Z,26.30
2022-07-25T06:19:43.391Z,26.40
2022-07-25T06:20:45.686Z,26.50
2022-07-25T06:21:48.993Z,26.60
2022-07-25T06:22:53.237Z,26.70
2022-07-25T06:23:57.994Z,26.80
2022-07-25T06:25:02.906Z,26.90
2022-07-25T06:26:08.722Z,27.00
2022-07-25T06:27:14.988Z,27.10
2022-07-25T06:28:20.923Z,27.20
2022-07-25T06:29:24.225Z,27.30
2022-07-25T06:30:26.535Z,27.40
2022-07-25T06:31:29.987Z,27.50
2022-07-25T06:32:32.611Z,27.50
2022-07-25T06:33:35.863Z,27.60
2022-07-25T06:34:39.834Z,27.60
2022-07-25T06:35:43.245Z,27.60
2022-07-25T06:36:46.253Z,27.60
2022-07-25T06:37:49.737Z,27.50
2022-07-25T06:38:52.098Z,27.40
2022-07-25T06:39:55.662Z,27.40
2022-07-25T06:40:58.967Z,27.30
2022-07-25T06:42:04.147Z,27.20
2022-07-25T06:43:10.563Z,27.10
2022-07-25T06:44:13.033Z,27.00
2022-07-25T06:45:18.742Z,26.90
2022-07-25T06:46:23.233Z,26.80
2022-07-25T06:47:26.821Z,26.70
2022-07-25T06:48:30.437Z,26.60
2022-07-25T06:49:33.722Z,26.50
2022-07-25T06:50:37.550Z,26.30
2022-07-25T06:51:41.041Z,26.20
2022-07-25T06:52:43.618Z,26.10
2022-07-25T06:53:46.932Z,26.00
2022-07-25T06:54:52.633Z,25.90
2022-07-25T06:55:56.073Z,25.80
2022-07-25T06:56:59.684Z,25.70
2022-07-25T06:58:02.222Z,25.60
2022-07-25T06:59:07.616Z,25.50
2022-07-25T07:00:14.364Z,25.50
2022-07-25T07:01:19.940Z,25.40
2022-07-25T07:02:23.408Z,25.40
2022-07-25T07:03:25.714Z,25.30
2022-07-25T07:04:31.214Z,25.30
2022-07-25T07:05:36.562Z,25.20
2022-07-25T07:06:39.968Z,25.20
2022-07-25T07:07:47.457Z,25.20
2022-07-25T07:08:51.107Z,25.10
2022-07-25T07:09:53.488Z,25.10
2022-07-25T07:10:56.839Z,25.00
2022-07-25T07:11:59.267Z,25.00
2022-07-25T07:13:07.955Z,24.90
2022-07-25T07:14:14.441Z,24.90
2022-07-25T07:15:17.665Z,24.90
2022-07-25T07:16:20.993Z,24.80
2022-07-25T07:17:23.482Z,24.80
2022-07-25T07:18:27.440Z,24.80
2022-07-25T07:19:30.832Z,24.80
2022-07-25T07:20:33.367Z,24.70
2022-07-25T07:21:38.013Z,24.70
2022-07-25T07:22:48.388Z,24.70
2022-07-25T07:23:53.378Z,24.70
2022-07-25T07:24:56.257Z,24.60
2022-07-25T07:26:00.567Z,24.60
2022-07-25T07:27:02.862Z,24.70
2022-07-25T07:28:07.401Z,24.70
2022-07-25T07:29:09.989Z,24.70
2022-07-25T07:30:14.777Z,24.70
2022-07-25T07:31:19.050Z,24.80
2022-07-25T07:32:21.576Z,24.80
2022-07-25T07:33:27.397Z,24.90
2022-07-25T07:34:29.678Z,25.00
2022-07-25T07:35:34.843Z,25.00
2022-07-25T07:36:39.849Z,25.10
2022-07-25T07:37:43.956Z,25.10
2022-07-25T07:38:46.293Z,25.20
2022-07-25T07:39:50.174Z,25.20
2022-07-25T07:40:54.004Z,25.30
2022-07-25T07:41:56.306Z,25.40
2022-07-25T07:43:02.473Z,25.50
2022-07-25T07:44:05.822Z,25.60
2022-07-25T07:45:14.942Z,25.70
2022-07-25T07:46:18.341Z,25.70
2022-07-25T07:47:21.700Z,25.80
2022-07-25T07:48:27.524Z,25.90
2022-07-25T07:49:37.236Z,25.90
2022-07-25T07:50:41.117Z,26.00
2022-07-25T07:51:47.823Z,26.10
2022-07-25T07:52:52.667Z,26.10
2022-07-25T07:54:15.790Z,26.20
2022-07-25T07:55:39.770Z,26.20
2022-07-25T07:56:43.162Z,26.20
2022-07-25T07:57:45.537Z,26.30
2022-07-25T07:58:49.163Z,26.40
2022-07-25T07:59:54.422Z,26.40
2022-07-25T08:00:57.672Z,26.40
2022-07-25T08:02:00.971Z,26.50
2022-07-25T08:03:04.254Z,26.50
2022-07-25T08:04:07.878Z,26.50
2022-07-25T08:05:10.504Z,26.50
2022-07-25T08:06:13.843Z,26.50
2022-07-25T08:07:19.871Z,26.50
2022-07-25T08:08:25.684Z,26.60
2022-07-25T08:09:32.786Z,26.60
2022-07-25T08:10:37.426Z,26.80
2022-07-25T08:11:40.951Z,27.10
2022-07-25T08:12:43.343Z,27.50
2022-07-25T08:13:46.764Z,27.80
2022-07-25T08:14:49.093Z,28.20
2022-07-25T08:15:55.966Z,28.60
2022-07-25T08:17:00.774Z,29.10
2022-07-25T08:18:04.841Z,29.40
2022-07-25T08:19:20.573Z,29.60
2022-07-25T08:20:39.664Z,29.80
2022-07-25T08:21:43.128Z,29.80
2022-07-25T08:22:56.677Z,29.80
2022-07-25T08:24:02.775Z,29.80
2022-07-25T08:25:10.125Z,29.70
2022-07-25T08:26:14.241Z,29.60
2022-07-25T08:27:16.520Z,29.60
2022-07-25T08:28:20.637Z,29.50
2022-07-25T08:29:28.067Z,29.50
2022-07-25T08:30:31.821Z,29.40
2022-07-25T08:31:34.432Z,29.40
2022-07-25T08:32:52.925Z,29.40
2022-07-25T08:33:55.229Z,29.40
2022-07-25T08:34:59.234Z,29.50
2022-07-25T08:36:02.681Z,29.40
2022-07-25T08:37:05.226Z,29.40
2022-07-25T08:38:11.584Z,29.30
2022-07-25T08:39:14.308Z,29.20
2022-07-25T08:40:23.269Z,29.20
2022-07-25T08:41:26.799Z,29.10
2022-07-25T08:42:29.956Z,29.00
2022-07-25T08:43:37.841Z,29.00
2022-07-25T08:44:46.825Z,28.90
2022-07-25T08:45:52.497Z,28.90
2022-07-25T08:46:56.556Z,28.90
2022-07-25T08:48:00.254Z,28.80
2022-07-25T08:49:03.390Z,28.80
2022-07-25T08:50:10.664Z,28.70
2022-07-25T08:51:14.032Z,28.60
2022-07-25T08:52:17.803Z,28.50
2022-07-25T08:53:39.153Z,28.40
2022-07-25T08:54:48.244Z,28.30
2022-07-25T08:55:50.615Z,28.20
2022-07-25T08:56:56.363Z,28.20
2022-07-25T08:58:00.269Z,28.20
2022-07-25T08:59:05.795Z,28.10
2022-07-25T09:00:10.545Z,28.20
2022-07-25T09:01:14.411Z,28.30
2022-07-25T09:02:17.003Z,28.50
2022-07-25T09:03:20.450Z,28.60
2022-07-25T09:04:27.211Z,28.80
2022-07-25T09:05:33.344Z,29.00
2022-07-25T09:06:51.528Z,29.20
2022-07-25T09:07:56.638Z,29.50
2022-07-25T09:09:04.675Z,29.70
2022-07-25T09:10:17.964Z,29.90
2022-07-25T09:11:31.929Z,30.20
2022-07-25T09:12:35.172Z,30.30
2022-07-25T09:13:40.250Z,30.50
2022-07-25T09:14:44.498Z,30.50
2022-07-25T09:15:52.128Z,30.60
2022-07-25T09:16:55.619Z,30.60
2022-07-25T09:18:02.458Z,30.70
2022-07-25T09:19:15.003Z,30.80
2022-07-25T09:20:18.648Z,30.90
2022-07-25T09:21:21.971Z,31.00
2022-07-25T09:22:25.474Z,31.10
2022-07-25T09:23:31.824Z,31.20
2022-07-25T09:24:36.811Z,31.40
2022-07-25T09:25:39.645Z,31.60
2022-07-25T09:26:49.114Z,31.90
2022-07-25T09:27:54.825Z,32.30
2022-07-25T09:29:00.964Z,32.50
2022-07-25T09:30:15.038Z,32.60
2022-07-25T09:31:18.925Z,32.80
2022-07-25T09:32:25.341Z,33.00
2022-07-25T09:33:30.384Z,33.30
2022-07-25T09:34:36.200Z,33.60
2022-07-25T09:35:41.759Z,33.90
2022-07-25T09:36:53.473Z,34.20
2022-07-25T09:38:07.395Z,34.40
2022-07-25T09:39:09.920Z,34.60
2022-07-25T09:40:16.493Z,34.80
2022-07-25T09:41:18.861Z,34.80
2022-07-25T09:42:26.643Z,34.80
2022-07-25T09:43:40.282Z,34.70
2022-07-25T09:44:45.085Z,34.50
2022-07-25T09:45:52.094Z,34.30
2022-07-25T09:46:54.618Z,34.10
2022-07-25T09:48:03.084Z,33.90
2022-07-25T09:49:05.431Z,33.60
2022-07-25T09:50:10.468Z,33.30
2022-07-25T09:51:13.905Z,33.00
2022-07-25T09:52:19.049Z,32.60
2022-07-25T09:53:22.501Z,32.30
2022-07-25T09:54:24.872Z,31.90
2022-07-25T09:55:30.752Z,31.60
2022-07-25T09:56:35.778Z,31.40
2022-07-25T09:57:41.735Z,31.20
2022-07-25T09:58:44.517Z,31.00
2022-07-25T09:59:50.248Z,30.80
2022-07-25T10:00:57.227Z,30.70
2022-07-25T10:02:09.613Z,30.60
2022-07-25T10:03:30.444Z,30.50
2022-07-25T10:04:57.343Z,30.50
2022-07-25T10:06:12.139Z,30.40
2022-07-25T10:07:19.447Z,30.50
2022-07-25T10:08:24.092Z,30.60
2022-07-25T10:09:26.534Z,30.70
2022-07-25T10:10:37.625Z,30.70
2022-07-25T10:11:41.574Z,30.70
2022-07-25T10:13:02.475Z,30.80
2022-07-25T10:14:13.412Z,30.80
2022-07-25T10:15:18.013Z,30.90
2022-07-25T10:16:23.975Z,30.90
2022-07-25T10:17:26.513Z,30.90
2022-07-25T10:18:34.483Z,30.90
2022-07-25T10:19:45.974Z,30.90
2022-07-25T10:20:57.066Z,30.80
2022-07-25T10:21:59.624Z,30.60
2022-07-25T10:23:03.682Z,30.40
2022-07-25T10:24:11.001Z,30.30
2022-07-25T10:25:19.249Z,30.20
2022-07-25T10:26:25.732Z,30.10
2022-07-25T10:27:28.057Z,30.00
2022-07-25T10:28:44.745Z,30.00
2022-07-25T10:29:53.677Z,29.90
2022-07-25T10:30:59.686Z,29.90
2022-07-25T10:32:10.776Z,29.80
2022-07-25T10:33:15.530Z,29.70
2022-07-25T10:34:30.779Z,29.70
2022-07-25T10:35:34.886Z,29.70
2022-07-25T10:36:46.927Z,29.90
2022-07-25T10:37:52.417Z,30.10
2022-07-25T10:39:01.204Z,30.40
2022-07-25T10:40:07.398Z,30.70
2022-07-25T10:41:15.268Z,30.90
2022-07-25T10:42:23.951Z,31.10
2022-07-25T10:43:29.149Z,31.20
2022-07-25T10:44:43.312Z,31.30
2022-07-25T10:45:54.030Z,31.40
2022-07-25T10:47:09.827Z,31.40
2022-07-25T10:48:23.282Z,31.30
2022-07-25T10:49:32.147Z,31.20
2022-07-25T10:50:54.477Z,31.10
2022-07-25T10:52:03.273Z,30.90
2022-07-25T10:53:09.184Z,30.80
2022-07-25T10:54:17.380Z,30.60
2022-07-25T10:55:24.675Z,30.30
2022-07-25T10:56:30.029Z,30.20
2022-07-25T10:57:34.442Z,29.90
2022-07-25T10:58:51.656Z,29.70
2022-07-25T10:59:54.336Z,29.40
2022-07-25T11:00:59.923Z,29.20
2022-07-25T11:02:04.444Z,28.90
2022-07-25T11:03:06.869Z,28.70
2022-07-25T11:04:17.155Z,28.40
2022-07-25T11:05:19.510Z,28.20
2022-07-25T11:06:34.512Z,28.00
2022-07-25T11:07:37.828Z,27.80
2022-07-25T11:08:40.977Z,27.60
2022-07-25T11:09:45.472Z,27.40
2022-07-25T11:10:52.549Z,27.20
2022-07-25T11:11:59.716Z,27.10
2022-07-25T11:13:09.302Z,26.90
2022-07-25T11:14:20.889Z,26.80
2022-07-25T11:15:25.755Z,26.60
2022-07-25T11:16:28.365Z,26.50
2022-07-25T11:17:34.480Z,26.30
2022-07-25T11:18:42.659Z,26.20
2022-07-25T11:19:56.368Z,26.00
2022-07-25T11:21:05.785Z,25.90
2022-07-25T11:22:12.446Z,25.70
2022-07-25T11:23:22.398Z,25.60
2022-07-25T11:24:37.730Z,25.50
2022-07-25T11:25:42.219Z,25.40
2022-07-25T11:26:50.762Z,25.40
2022-07-25T11:27:58.985Z,25.30
2022-07-25T11:29:04.376Z,25.20
2022-07-25T11:30:09.522Z,25.20
2022-07-25T11:31:14.562Z,25.20
2022-07-25T11:32:18.166Z,25.20
2022-07-25T11:33:20.656Z,25.20
2022-07-25T11:34:26.414Z,25.20
2022-07-25T11:35:32.055Z,25.30
2022-07-25T11:36:35.681Z,25.50
2022-07-25T11:37:40.932Z,25.60
2022-07-25T11:38:49.391Z,25.80
2022-07-25T11:39:52.953Z,26.00
2022-07-25T11:40:55.924Z,26.20
2022-07-25T11:42:05.248Z,26.40
2022-07-25T11:43:08.587Z,26.50
2022-07-25T11:44:13.276Z,26.50
2022-07-25T11:45:18.994Z,26.50
2022-07-25T11:46:22.416Z,26.50
2022-07-25T11:47:28.099Z,26.50
2022-07-25T11:48:35.122Z,26.40
2022-07-25T11:49:57.986Z,26.20
2022-07-25T11:51:18.610Z,26.10
2022-07-25T11:52:25.357Z,25.90
2022-07-25T11:53:29.320Z,25.80
2022-07-25T11:54:33.924Z,25.70
2022-07-25T11:55:40.929Z,25.70
2022-07-25T11:56:45.632Z,25.80
2022-07-25T11:57:49.096Z,25.90
2022-07-25T11:58:58.965Z,26.20
2022-07-25T12:00:11.505Z,26.40
2022-07-25T12:01:17.929Z,26.70
2022-07-25T12:02:26.643Z,27.00
2022-07-25T12:03:38.620Z,27.30
2022-07-25T12:04:55.773Z,27.50
2022-07-25T12:05:59.083Z,27.80
2022-07-25T12:07:06.737Z,28.00
2022-07-25T12:08:10.835Z,28.10
2022-07-25T12:09:19.114Z,28.20
2022-07-25T12:10:32.555Z,28.30
2022-07-25T12:11:34.906Z,28.40
2022-07-25T12:12:50.539Z,28.50
2022-07-25T12:14:05.410Z,28.50
2022-07-25T12:15:14.094Z,28.60
2022-07-25T12:16:18.737Z,28.60
2022-07-25T12:17:22.094Z,28.50
2022-07-25T12:18:24.882Z,28.50
2022-07-25T12:19:28.284Z,28.40
2022-07-25T12:20:33.503Z,28.40
2022-07-25T12:21:36.930Z,28.40
2022-07-25T12:22:39.282Z,28.40
2022-07-25T12:23:44.448Z,28.50
2022-07-25T12:24:46.795Z,28.50
2022-07-25T12:25:53.421Z,28.60
2022-07-25T12:26:56.733Z,28.60
2022-07-25T12:28:01.662Z,28.70
2022-07-25T12:29:04.342Z,28.70
2022-07-25T12:30:12.122Z,28.80
2022-07-25T12:31:18.512Z,28.90
2022-07-25T12:32:23.158Z,29.00
2022-07-25T12:33:26.438Z,29.10
2022-07-25T12:34:29.843Z,29.20
2022-07-25T12:35:37.778Z,29.30
2022-07-25T12:36:44.953Z,29.40
2022-07-25T12:37:47.650Z,29.50
2022-07-25T12:38:50.994Z,29.60
2022-07-25T12:39:53.677Z,29.70
2022-07-25T12:40:57.469Z,29.80
2022-07-25T12:41:59.852Z,29.90
2022-07-25T12:43:03.340Z,30.00
2022-07-25T12:44:07.636Z,30.10
2022-07-25T12:45:13.047Z,30.20
2022-07-25T12:46:16.559Z,30.30
2022-07-25T12:47:19.421Z,30.20
2022-07-25T12:48:26.382Z,30.20
2022-07-25T12:49:32.118Z,30.20
2022-07-25T12:50:38.025Z,30.20
2022-07-25T12:51:41.634Z,30.20
2022-07-25T12:52:46.764Z,30.30
2022-07-25T12:53:50.196Z,30.30
2022-07-25T12:54:53.154Z,30.30
2022-07-25T12:55:56.743Z,30.30
2022-07-25T12:56:59.105Z,30.40
2022-07-25T12:58:02.531Z,30.40
2022-07-25T12:59:06.146Z,30.30
2022-07-25T13:00:14.107Z,30.20
2022-07-25T13:01:17.645Z,30.00
2022-07-25T13:02:22.765Z,29.90
2022-07-25T13:03:26.114Z,29.70
2022-07-25T13:04:28.830Z,29.60
2022-07-25T13:05:34.227Z,29.60
2022-07-25T13:06:38.971Z,29.50
2022-07-25T13:07:42.578Z,29.40
2022-07-25T13:08:46.111Z,29.30
2022-07-25T13:09:49.439Z,29.30
2022-07-25T13:10:52.832Z,29.30
2022-07-25T13:11:56.048Z,29.30
2022-07-25T13:12:59.392Z,29.30
2022-07-25T13:14:02.697Z,29.40
2022-07-25T13:15:06.382Z,29.40
2022-07-25T13:16:11.313Z,29.50
2022-07-25T13:17:13.762Z,29.50
2022-07-25T13:18:17.487Z,29.50
2022-07-25T13:19:20.169Z,29.60
2022-07-25T13:20:24.141Z,29.60
2022-07-25T13:21:26.503Z,29.60
2022-07-25T13:22:30.842Z,29.70
2022-07-25T13:23:34.805Z,29.70
2022-07-25T13:24:37.571Z,29.90
2022-07-25T13:25:43.470Z,29.90
2022-07-25T13:26:46.402Z,29.90
2022-07-25T13:27:51.902Z,29.90
2022-07-25T13:28:59.431Z,29.80
2022-07-25T13:30:03.135Z,29.80
2022-07-25T13:31:07.884Z,29.70
2022-07-25T13:32:15.383Z,29.70
2022-07-25T13:33:19.000Z,29.60
2022-07-25T13:34:21.428Z,29.60
2022-07-25T13:35:31.647Z,29.50
2022-07-25T13:36:38.579Z,29.50
2022-07-25T13:37:41.937Z,29.40
2022-07-25T13:38:46.642Z,29.30
2022-07-25T13:39:50.106Z,29.30
2022-07-25T13:40:59.059Z,29.30
2022-07-25T13:42:05.052Z,29.30
2022-07-25T13:43:08.514Z,29.30
2022-07-25T13:44:10.832Z,29.20
2022-07-25T13:45:14.161Z,29.20
2022-07-25T13:46:16.743Z,29.20
2022-07-25T13:47:22.949Z,29.20
2022-07-25T13:48:30.744Z,29.20
2022-07-25T13:49:34.628Z,29.20
2022-07-25T13:50:38.314Z,29.20
2022-07-25T13:51:40.820Z,29.10
2022-07-25T13:52:46.282Z,29.10
2022-07-25T13:53:48.730Z,29.00
2022-07-25T13:54:52.251Z,29.00
2022-07-25T13:55:56.203Z,28.90
2022-07-25T13:57:00.089Z,28.80
2022-07-25T13:58:03.742Z,28.80
2022-07-25T13:59:06.127Z,28.70
2022-07-25T14:00:11.900Z,28.70
2022-07-25T14:01:14.272Z,28.60
2022-07-25T14:02:17.730Z,28.60
2022-07-25T14:03:21.684Z,28.50
2022-07-25T14:04:25.026Z,28.50
2022-07-25T14:05:28.367Z,28.50
2022-07-25T14:06:31.544Z,28.40
2022-07-25T14:07:36.047Z,28.40
2022-07-25T14:08:41.508Z,28.40
2022-07-25T14:09:44.790Z,28.40
2022-07-25T14:10:48.144Z,28.40
2022-07-25T14:11:50.494Z,28.40
2022-07-25T14:12:54.075Z,28.50
2022-07-25T14:13:56.442Z,28.50
2022-07-25T14:14:59.865Z,28.50
2022-07-25T14:16:02.342Z,28.60
2022-07-25T14:17:06.251Z,28.60
2022-07-25T14:18:09.775Z,28.50
2022-07-25T14:19:14.432Z,28.50
2022-07-25T14:20:20.572Z,28.50
2022-07-25T14:21:23.279Z,28.50
2022-07-25T14:22:26.710Z,28.40
2022-07-25T14:23:30.206Z,28.40
2022-07-25T14:24:33.826Z,28.30
2022-07-25T14:25:38.857Z,28.30
2022-07-25T14:26:42.329Z,28.20
2022-07-25T14:27:45.236Z,28.20
2022-07-25T14:28:48.618Z,28.20
2022-07-25T14:29:54.016Z,28.20
2022-07-25T14:30:57.405Z,28.20
2022-07-25T14:32:02.912Z,28.20
2022-07-25T14:33:05.321Z,28.10
2022-07-25T14:34:10.811Z,28.00
2022-07-25T14:35:17.823Z,27.90
2022-07-25T14:36:23.712Z,27.80
2022-07-25T14:37:27.174Z,27.70
2022-07-25T14:38:32.078Z,27.70
2022-07-25T14:39:35.974Z,27.60
2022-07-25T14:40:41.630Z,27.50
2022-07-25T14:41:47.286Z,27.40
2022-07-25T14:42:51.762Z,27.30
2022-07-25T14:43:55.087Z,27.30
2022-07-25T14:44:57.372Z,27.30
2022-07-25T14:46:00.777Z,27.30
2022-07-25T14:47:03.220Z,27.30
2022-07-25T14:48:07.525Z,27.30
2022-07-25T14:49:14.261Z,27.30
2022-07-25T14:50:19.113Z,27.30
2022-07-25T14:51:22.649Z,27.30
2022-07-25T14:52:24.977Z,27.20
2022-07-25T14:53:28.342Z,27.20
2022-07-25T14:54:30.864Z,27.20
2022-07-25T14:55:34.258Z,27.20
2022-07-25T14:56:37.827Z,27.20
2022-07-25T14:57:40.209Z,27.20
2022-07-25T14:58:43.526Z,27.20
2022-07-25T14:59:45.786Z,27.20
2022-07-25T15:00:49.221Z,27.20
2022-07-25T15:01:55.167Z,27.20
2022-07-25T15:02:58.363Z,27.20
2022-07-25T15:04:01.708Z,27.20
2022-07-25T15:05:07.552Z,27.20
2022-07-25T15:06:12.497Z,27.20
2022-07-25T15:07:14.849Z,27.20
2022-07-25T15:08:18.307Z,27.30
2022-07-25T15:09:22.428Z,27.30
2022-07-25T15:10:25.739Z,27.30